createdAt,value
2019-02-21T00:02:10.217Z,10.80
2019-02-21T00:04:38.759Z,10.80
2019-02-21T00:07:07.223Z,10.80
2019-02-21T00:09:35.679Z,10.80
2019-02-21T00:12:04.138Z,10.80
2019-02-21T00:14:32.588Z,10.80
2019-02-21T00:17:01.051Z,10.80
2019-02-21T00:19:29.510Z,10.70
2019-02-21T00:21:57.978Z,10.80
2019-02-21T00:24:26.437Z,10.70
2019-02-21T00:26:54.900Z,10.70
2019-02-21T00:29:23.342Z,10.70
2019-02-21T00:31:51.806Z,10.70
2019-02-21T00:34:20.291Z,10.70
2019-02-21T00:36:48.760Z,10.70
2019-02-21T00:39:17.205Z,10.70
2019-02-21T00:41:45.673Z,10.70
2019-02-21T00:44:14.120Z,10.70
2019-02-21T00:46:42.579Z,10.70
2019-02-21T00:49:11.048Z,10.70
2019-02-21T00:51:39.495Z,10.70
2019-02-21T00:54:07.971Z,10.80
2019-02-21T00:56:36.498Z,10.80
2019-02-21T00:59:05.443Z,10.80
2019-02-21T01:01:34.566Z,10.80
2019-02-21T01:04:03.019Z,10.80
2019-02-21T01:06:31.483Z,10.80
2019-02-21T01:08:59.955Z,10.80
2019-02-21T01:11:28.475Z,10.80
2019-02-21T01:13:56.979Z,10.80
2019-02-21T01:16:25.608Z,10.80
2019-02-21T01:18:54.087Z,10.80
2019-02-21T01:21:22.556Z,10.80
2019-02-21T01:23:51.004Z,10.80
2019-02-21T01:26:19.463Z,10.80
2019-02-21T01:28:47.928Z,10.80
2019-02-21T01:31:16.380Z,10.80
2019-02-21T01:33:44.853Z,10.80
2019-02-21T01:36:13.310Z,10.80
2019-02-21T01:38:41.755Z,10.90
2019-02-21T01:41:10.222Z,10.90
2019-02-21T01:43:38.667Z,10.90
2019-02-21T01:46:07.137Z,10.90
2019-02-21T01:48:35.608Z,10.90
2019-02-21T01:51:04.119Z,10.90
2019-02-21T01:53:32.610Z,10.90
2019-02-21T01:56:01.046Z,10.90
2019-02-21T01:58:29.516Z,10.90
2019-02-21T02:01:08.059Z,10.90
2019-02-21T02:03:28.619Z,10.90
2019-02-21T02:05:57.090Z,10.90
2019-02-21T02:08:25.540Z,10.90
2019-02-21T02:10:53.992Z,10.90
2019-02-21T02:13:24.893Z,10.90
2019-02-21T02:15:52.939Z,10.90
2019-02-21T02:18:21.387Z,10.90
2019-02-21T02:20:49.847Z,10.90
2019-02-21T02:23:18.299Z,10.90
2019-02-21T02:25:46.760Z,10.90
2019-02-21T02:28:15.210Z,10.90
2019-02-21T02:30:43.679Z,11.00
2019-02-21T02:33:12.138Z,11.00
2019-02-21T02:35:40.579Z,11.00
2019-02-21T02:38:09.336Z,11.00
2019-02-21T02:40:37.859Z,11.00
2019-02-21T02:43:06.406Z,11.00
2019-02-21T02:45:34.922Z,11.00
2019-02-21T02:48:03.467Z,11.00
2019-02-21T02:50:31.981Z,11.00
2019-02-21T02:53:00.538Z,10.90
2019-02-21T02:55:29.067Z,11.00
2019-02-21T02:57:57.529Z,11.00
2019-02-21T03:00:25.972Z,11.00
2019-02-21T03:02:54.418Z,10.90
2019-02-21T03:05:22.979Z,11.00
2019-02-21T03:07:51.420Z,11.00
2019-02-21T03:10:20.181Z,11.00
2019-02-21T03:12:48.620Z,11.00
2019-02-21T03:15:17.088Z,11.00
2019-02-21T03:17:45.528Z,11.00
2019-02-21T03:20:14.011Z,11.00
2019-02-21T03:22:42.495Z,11.00
2019-02-21T03:25:11.054Z,11.00
2019-02-21T03:27:39.509Z,11.00
2019-02-21T03:30:12.140Z,11.00
2019-02-21T03:32:40.590Z,11.00
2019-02-21T03:35:09.205Z,11.00
2019-02-21T03:37:37.654Z,10.90
2019-02-21T03:40:08.894Z,10.90
2019-02-21T03:42:36.663Z,10.90
2019-02-21T03:45:24.538Z,10.90
2019-02-21T03:47:53.070Z,10.90
2019-02-21T03:50:21.628Z,10.90
2019-02-21T03:52:50.419Z,10.80
2019-02-21T03:55:18.906Z,10.80
2019-02-21T03:57:47.359Z,10.80
2019-02-21T04:00:15.835Z,10.70
2019-02-21T04:02:44.350Z,10.70
2019-02-21T04:05:12.811Z,10.70
2019-02-21T04:07:41.255Z,10.70
2019-02-21T04:10:10.025Z,10.60
2019-02-21T04:12:38.476Z,10.60
2019-02-21T04:15:09.444Z,10.60
2019-02-21T04:17:37.899Z,10.60
2019-02-21T04:20:07.192Z,10.60
2019-02-21T04:22:35.655Z,10.60
2019-02-21T04:25:05.380Z,10.50
2019-02-21T04:27:33.848Z,10.50
2019-02-21T04:30:02.295Z,10.50
2019-02-21T04:32:30.782Z,10.50
2019-02-21T04:34:59.294Z,10.40
2019-02-21T04:37:27.769Z,10.40
2019-02-21T04:39:56.216Z,10.50
2019-02-21T04:42:24.672Z,10.40
2019-02-21T04:44:53.143Z,10.40
2019-02-21T04:47:21.588Z,10.40
2019-02-21T04:49:50.073Z,10.40
2019-02-21T04:52:18.631Z,10.40
2019-02-21T04:54:47.075Z,10.40
2019-02-21T04:57:15.552Z,10.40
2019-02-21T04:59:44.078Z,10.40
2019-02-21T05:02:12.612Z,10.40
2019-02-21T05:04:41.114Z,10.30
2019-02-21T05:07:09.558Z,10.30
2019-02-21T05:09:38.057Z,10.30
2019-02-21T05:12:06.598Z,10.30
2019-02-21T05:14:35.057Z,10.30
2019-02-21T05:17:03.528Z,10.20
2019-02-21T05:19:32.035Z,10.20
2019-02-21T05:22:00.498Z,10.20
2019-02-21T05:24:28.950Z,10.10
2019-02-21T05:26:59.044Z,10.10
2019-02-21T05:29:27.487Z,10.10
2019-02-21T05:32:14.091Z,10.10
2019-02-21T05:34:46.943Z,10.10
2019-02-21T05:37:23.091Z,10.20
2019-02-21T05:39:53.175Z,10.10
2019-02-21T05:42:23.277Z,10.10
2019-02-21T05:45:11.069Z,10.10
2019-02-21T05:47:41.752Z,10.20
2019-02-21T05:50:11.857Z,10.20
2019-02-21T05:52:41.944Z,10.20
2019-02-21T05:55:30.150Z,10.20
2019-02-21T05:58:03.049Z,10.20
2019-02-21T06:00:49.269Z,10.20
2019-02-21T06:03:36.141Z,10.20
2019-02-21T06:06:12.554Z,10.20
2019-02-21T06:08:44.229Z,10.20
2019-02-21T06:11:30.569Z,10.20
2019-02-21T06:14:00.658Z,10.20
2019-02-21T06:16:36.847Z,10.20
2019-02-21T06:19:09.801Z,10.20
2019-02-21T06:21:51.991Z,10.20
2019-02-21T06:24:22.146Z,10.20
2019-02-21T06:27:03.935Z,10.20
2019-02-21T06:29:37.022Z,10.20
2019-02-21T06:32:13.896Z,10.20
2019-02-21T06:34:35.683Z,10.20
2019-02-21T06:37:04.147Z,10.20
2019-02-21T06:39:32.592Z,10.10
2019-02-21T06:42:01.083Z,10.10
2019-02-21T06:44:29.535Z,10.20
2019-02-21T06:46:57.985Z,10.10
2019-02-21T06:49:32.474Z,10.10
2019-02-21T06:51:56.619Z,10.10
2019-02-21T06:54:25.115Z,10.10
2019-02-21T06:56:53.595Z,10.10
2019-02-21T06:59:23.770Z,10.10
2019-02-21T07:01:52.383Z,10.10
2019-02-21T07:04:20.848Z,10.10
2019-02-21T07:06:49.299Z,10.10
2019-02-21T07:09:17.791Z,10.10
2019-02-21T07:11:46.247Z,10.10
2019-02-21T07:14:14.706Z,10.10
2019-02-21T07:16:43.259Z,10.10
2019-02-21T07:19:11.705Z,10.10
2019-02-21T07:21:40.159Z,10.10
2019-02-21T07:24:08.643Z,10.10
2019-02-21T07:26:37.104Z,10.20
2019-02-21T07:29:05.559Z,10.20
2019-02-21T07:31:34.029Z,10.20
2019-02-21T07:34:02.473Z,10.30
2019-02-21T07:36:30.939Z,10.30
2019-02-21T07:39:13.944Z,10.40
2019-02-21T07:41:29.583Z,10.40
2019-02-21T07:43:58.046Z,10.40
2019-02-21T07:46:26.559Z,10.50
2019-02-21T07:48:55.072Z,10.50
2019-02-21T07:51:23.526Z,10.50
2019-02-21T07:53:52.043Z,10.50
2019-02-21T07:56:20.531Z,10.50
2019-02-21T07:58:49.002Z,10.50
2019-02-21T08:01:17.720Z,10.50
2019-02-21T08:03:48.495Z,10.50
2019-02-21T08:06:16.551Z,10.50
2019-02-21T08:08:45.156Z,10.60
2019-02-21T08:11:13.656Z,10.60
2019-02-21T08:13:42.163Z,10.60
2019-02-21T08:16:12.420Z,10.60
2019-02-21T08:18:40.879Z,10.60
2019-02-21T08:21:09.327Z,10.60
2019-02-21T08:23:37.782Z,10.60
2019-02-21T08:26:06.358Z,10.60
2019-02-21T08:28:34.823Z,10.60
2019-02-21T08:31:03.270Z,10.60
2019-02-21T08:33:33.398Z,10.60
2019-02-21T08:36:01.853Z,10.60
2019-02-21T08:38:30.432Z,10.60
2019-02-21T08:40:58.877Z,10.60
2019-02-21T08:43:27.343Z,10.70
2019-02-21T08:45:57.571Z,10.70
2019-02-21T08:48:26.099Z,10.70
2019-02-21T08:50:54.538Z,10.70
2019-02-21T08:53:22.999Z,10.70
2019-02-21T08:55:51.515Z,10.70
2019-02-21T08:58:19.967Z,10.70
2019-02-21T09:00:48.446Z,10.80
2019-02-21T09:03:18.119Z,10.80
2019-02-21T09:05:46.824Z,10.80
2019-02-21T09:08:16.752Z,10.90
2019-02-21T09:10:45.413Z,10.90
2019-02-21T09:13:13.923Z,10.90
2019-02-21T09:15:42.435Z,10.90
2019-02-21T09:18:10.881Z,10.90
2019-02-21T09:20:39.342Z,11.00
2019-02-21T09:23:07.849Z,11.00
2019-02-21T09:25:36.300Z,11.00
2019-02-21T09:28:04.755Z,11.10
2019-02-21T09:30:33.273Z,11.10
2019-02-21T09:33:01.783Z,11.10
2019-02-21T09:35:30.243Z,11.10
2019-02-21T09:37:58.683Z,11.10
2019-02-21T09:40:28.559Z,11.20
2019-02-21T09:42:57.387Z,11.20
2019-02-21T09:45:25.838Z,11.30
2019-02-21T09:47:54.317Z,11.40
2019-02-21T09:50:22.830Z,11.40
2019-02-21T09:52:51.576Z,11.50
2019-02-21T09:55:20.028Z,11.60
2019-02-21T09:57:48.495Z,11.70
2019-02-21T10:00:21.127Z,11.70
2019-02-21T10:02:49.616Z,11.80
2019-02-21T10:05:18.137Z,11.80
2019-02-21T10:07:46.632Z,11.80
2019-02-21T10:10:19.057Z,11.80
2019-02-21T10:12:47.532Z,11.80
2019-02-21T10:15:16.931Z,11.80
2019-02-21T10:17:45.401Z,11.80
2019-02-21T10:20:19.651Z,11.90
2019-02-21T10:22:48.180Z,11.90
2019-02-21T10:25:27.486Z,11.90
2019-02-21T10:27:55.966Z,11.90
2019-02-21T10:30:24.446Z,12.00
2019-02-21T10:32:52.928Z,11.90
2019-02-21T10:35:21.451Z,11.90
2019-02-21T10:37:49.934Z,12.00
2019-02-21T10:40:18.523Z,12.00
2019-02-21T10:42:47.035Z,12.10
2019-02-21T10:45:18.115Z,12.10
2019-02-21T10:47:46.578Z,12.10
2019-02-21T10:50:16.799Z,12.20
2019-02-21T10:52:45.296Z,12.20
2019-02-21T10:55:14.420Z,12.30
2019-02-21T10:57:45.274Z,12.30
2019-02-21T11:00:22.320Z,12.30
2019-02-21T11:02:50.850Z,12.30
2019-02-21T11:05:19.303Z,12.30
2019-02-21T11:07:47.759Z,12.30
2019-02-21T11:10:29.253Z,12.20
2019-02-21T11:12:57.702Z,12.20
2019-02-21T11:15:26.319Z,12.20
2019-02-21T11:17:54.810Z,12.20
2019-02-21T11:20:23.313Z,12.30
2019-02-21T11:22:51.755Z,12.30
2019-02-21T11:25:20.219Z,12.30
2019-02-21T11:27:48.662Z,12.30
2019-02-21T11:30:21.755Z,12.40
2019-02-21T11:32:50.256Z,12.40
2019-02-21T11:35:18.913Z,12.40
2019-02-21T11:37:47.654Z,12.50
2019-02-21T11:40:17.417Z,12.40
2019-02-21T11:42:46.116Z,12.40
2019-02-21T11:45:17.358Z,12.50
2019-02-21T11:47:45.039Z,12.40
2019-02-21T11:50:19.458Z,12.50
2019-02-21T11:52:47.908Z,12.40
2019-02-21T11:55:22.430Z,12.40
2019-02-21T11:57:50.950Z,12.40
2019-02-21T12:00:24.660Z,12.40
2019-02-21T12:02:53.119Z,12.30
2019-02-21T12:05:30.468Z,12.40
2019-02-21T12:07:53.314Z,12.40
2019-02-21T12:10:22.651Z,12.40
2019-02-21T12:12:51.155Z,12.30
2019-02-21T12:15:19.599Z,12.30
2019-02-21T12:17:48.044Z,12.30
2019-02-21T12:20:18.921Z,12.30
2019-02-21T12:22:47.829Z,12.30
2019-02-21T12:25:21.255Z,12.30
2019-02-21T12:27:49.715Z,12.30
2019-02-21T12:30:20.090Z,12.40
2019-02-21T12:32:48.655Z,12.40
2019-02-21T12:35:28.731Z,12.40
2019-02-21T12:37:47.271Z,12.50
2019-02-21T12:40:20.158Z,12.40
2019-02-21T12:42:48.628Z,12.50
2019-02-21T12:45:22.032Z,12.50
2019-02-21T12:47:53.545Z,12.50
2019-02-21T12:50:20.654Z,12.50
2019-02-21T12:52:49.095Z,12.50
2019-02-21T12:55:26.987Z,12.50
2019-02-21T12:57:47.743Z,12.50
2019-02-21T13:00:18.255Z,12.40
2019-02-21T13:02:46.715Z,12.40
2019-02-21T13:05:15.162Z,12.30
2019-02-21T13:07:44.399Z,12.30
2019-02-21T13:10:15.362Z,12.20
2019-02-21T13:12:43.823Z,12.20
2019-02-21T13:15:14.106Z,12.10
2019-02-21T13:17:42.591Z,12.10
2019-02-21T13:20:12.883Z,12.10
2019-02-21T13:22:41.403Z,12.00
2019-02-21T13:25:11.889Z,12.00
2019-02-21T13:27:40.379Z,12.00
2019-02-21T13:30:14.194Z,12.00
2019-02-21T13:32:42.656Z,12.00
2019-02-21T13:35:11.906Z,12.00
2019-02-21T13:37:40.354Z,11.90
2019-02-21T13:40:21.047Z,11.90
2019-02-21T13:42:48.365Z,11.90
2019-02-21T13:45:18.198Z,11.90
2019-02-21T13:47:47.118Z,11.90
2019-02-21T13:50:17.219Z,11.90
2019-02-21T13:52:45.762Z,11.90
2019-02-21T13:55:14.361Z,11.90
2019-02-21T13:57:42.823Z,11.90
2019-02-21T14:00:19.555Z,11.90
2019-02-21T14:02:48.028Z,11.90
2019-02-21T14:05:16.539Z,11.90
2019-02-21T14:07:45.018Z,11.90
2019-02-21T14:10:14.679Z,11.90
2019-02-21T14:12:43.210Z,11.90
2019-02-21T14:15:17.307Z,11.90
2019-02-21T14:17:46.597Z,11.90
2019-02-21T14:20:15.575Z,11.80
2019-02-21T14:22:44.109Z,11.80
2019-02-21T14:25:12.591Z,11.80
2019-02-21T14:27:41.114Z,11.80
2019-02-21T14:30:12.686Z,11.70
2019-02-21T14:32:41.230Z,11.70
2019-02-21T14:35:11.906Z,11.70
2019-02-21T14:37:40.378Z,11.60
2019-02-21T14:40:11.134Z,11.60
2019-02-21T14:42:39.570Z,11.60
2019-02-21T14:45:12.513Z,11.50
2019-02-21T14:47:41.435Z,11.50
2019-02-21T14:50:11.735Z,11.50
2019-02-21T14:52:40.247Z,11.50
2019-02-21T14:55:11.136Z,11.50
2019-02-21T14:57:41.200Z,11.50
2019-02-21T15:00:15.972Z,11.40
2019-02-21T15:02:44.425Z,11.40
2019-02-21T15:05:13.012Z,11.40
2019-02-21T15:07:41.607Z,11.40
2019-02-21T15:10:11.291Z,11.40
2019-02-21T15:12:39.738Z,11.40
2019-02-21T15:15:13.866Z,11.40
2019-02-21T15:17:42.328Z,11.30
2019-02-21T15:20:13.379Z,11.30
2019-02-21T15:22:41.843Z,11.30
2019-02-21T15:25:10.423Z,11.30
2019-02-21T15:27:38.885Z,11.30
2019-02-21T15:30:27.018Z,11.30
2019-02-21T15:32:55.476Z,11.30
2019-02-21T15:35:23.935Z,11.30
2019-02-21T15:37:52.385Z,11.30
2019-02-21T15:40:20.897Z,11.30
2019-02-21T15:42:49.491Z,11.30
2019-02-21T15:45:24.186Z,11.30
2019-02-21T15:47:53.257Z,11.20
2019-02-21T15:50:21.750Z,11.20
2019-02-21T15:52:51.446Z,11.20
2019-02-21T15:55:21.045Z,11.20
2019-02-21T15:57:49.508Z,11.20
2019-02-21T16:00:22.696Z,11.20
2019-02-21T16:02:51.229Z,11.20
2019-02-21T16:05:19.748Z,11.20
2019-02-21T16:07:48.271Z,11.20
2019-02-21T16:10:19.971Z,11.20
2019-02-21T16:12:48.763Z,11.20
2019-02-21T16:15:17.975Z,11.10
2019-02-21T16:17:46.441Z,11.20
2019-02-21T16:20:19.834Z,11.20
2019-02-21T16:22:48.309Z,11.20
2019-02-21T16:25:25.676Z,11.20
2019-02-21T16:27:55.379Z,11.20
2019-02-21T16:30:24.187Z,11.10
2019-02-21T16:32:52.702Z,11.20
2019-02-21T16:35:21.288Z,11.10
2019-02-21T16:37:49.739Z,11.20
2019-02-21T16:40:19.037Z,11.20
2019-02-21T16:42:47.495Z,11.20
2019-02-21T16:45:18.652Z,11.10
2019-02-21T16:47:46.303Z,11.20
2019-02-21T16:50:35.655Z,11.20
2019-02-21T16:53:04.179Z,11.20
2019-02-21T16:55:32.619Z,11.10
2019-02-21T16:58:01.088Z,11.20
2019-02-21T17:00:42.101Z,11.10
2019-02-21T17:02:59.712Z,11.10
2019-02-21T17:05:28.175Z,11.10
2019-02-21T17:07:56.627Z,11.10
2019-02-21T17:10:25.164Z,11.00
2019-02-21T17:12:55.222Z,11.00
2019-02-21T17:15:23.755Z,11.00
2019-02-21T17:17:52.199Z,11.00
2019-02-21T17:20:25.165Z,11.00
2019-02-21T17:22:53.606Z,10.90
2019-02-21T17:25:22.069Z,10.90
2019-02-21T17:27:50.683Z,10.90
2019-02-21T17:30:19.875Z,10.90
2019-02-21T17:32:48.337Z,10.90
2019-02-21T17:35:16.876Z,10.80
2019-02-21T17:37:45.327Z,10.90
2019-02-21T17:40:19.215Z,10.80
2019-02-21T17:42:47.671Z,10.80
2019-02-21T17:45:16.128Z,10.80
2019-02-21T17:47:44.586Z,10.80
2019-02-21T17:50:17.972Z,10.80
2019-02-21T17:52:46.495Z,10.70
2019-02-21T17:55:16.189Z,10.70
2019-02-21T17:57:44.645Z,10.70
2019-02-21T18:00:25.687Z,10.70
2019-02-21T18:02:54.146Z,10.70
2019-02-21T18:05:22.596Z,10.70
2019-02-21T18:07:51.079Z,10.70
2019-02-21T18:10:19.542Z,10.60
2019-02-21T18:12:48.054Z,10.60
2019-02-21T18:15:17.918Z,10.60
2019-02-21T18:17:46.439Z,10.60
2019-02-21T18:20:15.964Z,10.60
2019-02-21T18:22:44.979Z,10.60
2019-02-21T18:25:22.118Z,10.60
2019-02-21T18:27:50.560Z,10.60
2019-02-21T18:30:19.169Z,10.60
2019-02-21T18:32:47.614Z,10.50
2019-02-21T18:35:16.219Z,10.50
2019-02-21T18:37:47.747Z,10.50
2019-02-21T18:40:26.471Z,10.50
2019-02-21T18:42:55.013Z,10.50
2019-02-21T18:45:23.485Z,10.50
2019-02-21T18:47:51.925Z,10.40
2019-02-21T18:50:20.383Z,10.40
2019-02-21T18:52:48.927Z,10.40
2019-02-21T18:55:17.371Z,10.40
2019-02-21T18:57:45.855Z,10.40
2019-02-21T19:00:19.967Z,10.40
2019-02-21T19:02:48.423Z,10.40
2019-02-21T19:05:16.964Z,10.40
2019-02-21T19:07:45.422Z,10.40
2019-02-21T19:10:18.885Z,10.40
2019-02-21T19:12:47.327Z,10.40
2019-02-21T19:15:18.027Z,10.40
2019-02-21T19:17:46.468Z,10.40
2019-02-21T19:20:16.079Z,10.40
2019-02-21T19:22:44.521Z,10.40
2019-02-21T19:25:14.024Z,10.40
2019-02-21T19:27:43.419Z,10.40
2019-02-21T19:30:21.130Z,10.40
2019-02-21T19:32:49.587Z,10.40
2019-02-21T19:35:18.055Z,10.30
2019-02-21T19:37:46.531Z,10.30
2019-02-21T19:40:15.150Z,10.30
2019-02-21T19:42:43.600Z,10.30
2019-02-21T19:45:12.135Z,10.30
2019-02-21T19:47:40.603Z,10.30
2019-02-21T19:50:09.695Z,10.30
2019-02-21T19:52:38.195Z,10.30
2019-02-21T19:55:08.902Z,10.30
2019-02-21T19:57:37.367Z,10.30
2019-02-21T20:00:21.777Z,10.30
2019-02-21T20:02:50.236Z,10.30
2019-02-21T20:05:18.722Z,10.30
2019-02-21T20:07:47.168Z,10.30
2019-02-21T20:10:15.791Z,10.30
2019-02-21T20:12:44.250Z,10.30
2019-02-21T20:15:12.862Z,10.30
2019-02-21T20:17:41.495Z,10.20
2019-02-21T20:20:21.251Z,10.20
2019-02-21T20:22:49.715Z,10.20
2019-02-21T20:25:18.177Z,10.20
2019-02-21T20:27:46.640Z,10.20
2019-02-21T20:30:19.343Z,10.20
2019-02-21T20:32:47.936Z,10.20
2019-02-21T20:35:16.506Z,10.10
2019-02-21T20:37:45.024Z,10.20
2019-02-21T20:40:13.919Z,10.10
2019-02-21T20:42:42.384Z,10.10
2019-02-21T20:45:12.175Z,10.10
2019-02-21T20:47:40.626Z,10.10
2019-02-21T20:50:32.656Z,10.10
2019-02-21T20:53:02.866Z,10.10
2019-02-21T20:55:31.310Z,10.10
2019-02-21T20:57:59.871Z,10.10
2019-02-21T21:00:28.308Z,10.10
2019-02-21T21:02:56.755Z,10.10
2019-02-21T21:05:25.590Z,10.10
2019-02-21T21:07:54.151Z,10.10
2019-02-21T21:10:22.599Z,10.10
2019-02-21T21:12:51.039Z,10.10
2019-02-21T21:15:19.600Z,10.00
2019-02-21T21:17:48.107Z,10.10
2019-02-21T21:20:17.549Z,10.10
2019-02-21T21:22:46.293Z,10.00
2019-02-21T21:25:16.498Z,10.00
2019-02-21T21:27:45.011Z,10.00
2019-02-21T21:30:17.591Z,10.00
2019-02-21T21:32:46.034Z,10.00
2019-02-21T21:35:14.571Z,10.00
2019-02-21T21:37:43.022Z,10.00
2019-02-21T21:40:16.304Z,10.00
2019-02-21T21:42:44.872Z,10.00
2019-02-21T21:45:15.867Z,10.00
2019-02-21T21:47:44.391Z,10.00
2019-02-21T21:50:15.321Z,10.10
2019-02-21T21:52:43.807Z,10.00
2019-02-21T21:55:12.324Z,10.00
2019-02-21T21:57:40.785Z,10.00
2019-02-21T22:00:14.906Z,10.00
2019-02-21T22:02:43.366Z,10.00
2019-02-21T22:05:11.811Z,10.00
2019-02-21T22:07:40.281Z,9.90
2019-02-21T22:10:11.527Z,10.00
2019-02-21T22:12:39.231Z,9.90
2019-02-21T22:15:12.958Z,9.90
2019-02-21T22:17:42.194Z,9.90
2019-02-21T22:20:11.027Z,9.90
2019-02-21T22:22:39.480Z,9.80
2019-02-21T22:25:11.060Z,9.80
2019-02-21T22:27:39.573Z,9.80
2019-02-21T22:30:16.712Z,9.70
2019-02-21T22:32:45.161Z,9.70
2019-02-21T22:35:13.651Z,9.70
2019-02-21T22:37:42.086Z,9.70
2019-02-21T22:40:29.922Z,9.70
2019-02-21T22:42:58.464Z,9.70
2019-02-21T22:45:26.919Z,9.70
2019-02-21T22:47:55.379Z,9.60
2019-02-21T22:50:23.831Z,9.70
2019-02-21T22:52:52.275Z,9.70
2019-02-21T22:55:20.743Z,9.60
2019-02-21T22:57:49.199Z,9.60
2019-02-21T23:00:49.202Z,9.60
2019-02-21T23:03:18.064Z,9.60
2019-02-21T23:06:18.554Z,9.60
2019-02-21T23:08:52.079Z,9.60
2019-02-21T23:11:20.633Z,9.60
2019-02-21T23:13:49.766Z,9.60
2019-02-21T23:16:18.299Z,9.60
2019-02-21T23:18:47.039Z,9.60
2019-02-21T23:21:15.499Z,9.60
2019-02-21T23:23:43.942Z,9.60
2019-02-21T23:26:12.398Z,9.60
2019-02-21T23:28:40.921Z,9.60
2019-02-21T23:31:09.448Z,9.60
2019-02-21T23:33:39.528Z,9.70
2019-02-21T23:36:07.992Z,9.60
2019-02-21T23:38:36.433Z,9.60
2019-02-21T23:41:04.908Z,9.60
2019-02-21T23:43:33.363Z,9.70
2019-02-21T23:46:01.872Z,9.70
2019-02-21T23:48:30.347Z,9.70
2019-02-21T23:50:58.783Z,9.60
2019-02-21T23:53:27.322Z,9.70
2019-02-21T23:55:55.763Z,9.70
2019-02-21T23:58:24.254Z,9.70
